Time;durP1;ratioP1;P1;durP2;ratioP2;P2;SDS_P1;SDS_P2;PMS_P1;PMS_P2;Temp;Humidity;BMP_temperature;BMP_pressure;BME280_temperature;BME280_humidity;BME280_pressure;Samples;Min_cycle;Max_cycle;Signal;HPM_P1;HPM_P2
2023/12/31 00:02:05;;;;;;;16.17;15.77;;;23.20;53.40;;;;;;4991958;28;20446;-65
2023/12/31 00:04:32;;;;;;;15.80;15.40;;;23.10;53.50;;;;;;4977729;28;20467;-65
2023/12/31 00:06:59;;;;;;;16.20;15.70;;;23.10;53.50;;;;;;4992458;28;20495;-65
2023/12/31 00:09:26;;;;;;;16.30;15.90;;;23.10;53.50;;;;;;4992949;28;20545;-65
2023/12/31 00:11:54;;;;;;;16.20;15.80;;;23.10;53.60;;;;;;4992724;28;20469;-65
2023/12/31 00:14:21;;;;;;;16.00;15.60;;;23.00;53.60;;;;;;4976799;28;20517;-65
2023/12/31 00:16:48;;;;;;;16.83;16.20;;;23.00;53.60;;;;;;4992196;28;20502;-65
2023/12/31 00:19:15;;;;;;;16.40;15.90;;;23.00;53.60;;;;;;4992564;28;20878;-65
2023/12/31 00:21:42;;;;;;;16.20;15.70;;;23.00;53.70;;;;;;4992569;28;20887;-65
2023/12/31 00:24:10;;;;;;;16.50;15.90;;;23.00;53.70;;;;;;4975579;28;20476;-65
2023/12/31 00:26:37;;;;;;;15.93;15.43;;;22.90;53.70;;;;;;4972890;28;20470;-65
2023/12/31 00:29:05;;;;;;;16.10;15.70;;;22.90;53.70;;;;;;4973041;28;20578;-65
2023/12/31 00:31:32;;;;;;;15.87;15.47;;;22.90;53.70;;;;;;4973006;28;20475;-65
2023/12/31 00:33:59;;;;;;;16.93;16.43;;;22.90;53.80;;;;;;4987926;28;20482;-65
2023/12/31 00:36:26;;;;;;;16.93;16.43;;;22.90;53.80;;;;;;4992389;28;20505;-65
2023/12/31 00:38:53;;;;;;;16.83;16.43;;;22.80;53.80;;;;;;4992631;28;20481;-65
2023/12/31 00:41:20;;;;;;;16.90;16.40;;;22.80;53.80;;;;;;4992205;28;20449;-65
2023/12/31 00:43:47;;;;;;;17.30;16.80;;;22.80;53.90;;;;;;4976471;28;20476;-65
2023/12/31 00:46:16;;;;;;;17.30;16.80;;;22.80;53.90;;;;;;4972823;28;20495;-65
2023/12/31 00:48:42;;;;;;;16.23;15.83;;;22.70;53.90;;;;;;4972784;28;20522;-65
2023/12/31 00:51:09;;;;;;;16.30;15.90;;;22.70;53.90;;;;;;4972796;28;20479;-65
2023/12/31 00:53:36;;;;;;;16.50;16.10;;;22.70;54.00;;;;;;4986579;28;20482;-65
2023/12/31 00:56:03;;;;;;;16.50;16.07;;;22.70;54.00;;;;;;4992156;28;20529;-65
2023/12/31 00:58:30;;;;;;;15.63;15.23;;;22.70;54.10;;;;;;4992161;28;20463;-65
2023/12/31 01:00:57;;;;;;;16.93;16.43;;;22.70;54.10;;;;;;4992062;28;20483;-65
2023/12/31 01:03:25;;;;;;;16.47;15.97;;;22.70;54.20;;;;;;4977423;28;20475;-65
2023/12/31 01:05:52;;;;;;;16.30;15.90;;;22.70;54.10;;;;;;4973066;28;20495;-65
2023/12/31 01:08:19;;;;;;;16.80;16.20;;;22.60;54.10;;;;;;4972719;28;21186;-65
2023/12/31 01:10:46;;;;;;;16.80;16.30;;;22.70;54.20;;;;;;4972613;28;20486;-65
2023/12/31 01:13:13;;;;;;;16.00;15.60;;;22.60;54.10;;;;;;4976463;28;20483;-65
2023/12/31 01:15:40;;;;;;;16.70;16.20;;;22.60;54.70;;;;;;4973344;28;20479;-65
2023/12/31 01:18:07;;;;;;;16.30;15.90;;;22.60;54.20;;;;;;4972695;28;20515;-65
2023/12/31 01:20:35;;;;;;;16.90;16.40;;;22.60;54.20;;;;;;4972520;28;20479;-65
2023/12/31 01:23:02;;;;;;;16.20;15.80;;;22.60;54.30;;;;;;4983377;28;20447;-65
2023/12/31 01:25:29;;;;;;;15.80;15.40;;;22.50;54.20;;;;;;4992087;28;20525;-65
2023/12/31 01:27:56;;;;;;;16.33;15.93;;;22.50;54.30;;;;;;4991803;28;20514;-65
2023/12/31 01:30:23;;;;;;;16.30;15.80;;;22.50;54.30;;;;;;4994930;28;20443;-65
2023/12/31 01:32:50;;;;;;;16.10;15.60;;;22.50;54.40;;;;;;4986290;28;20962;-65
2023/12/31 01:35:18;;;;;;;16.00;15.60;;;22.50;54.40;;;;;;4976145;28;20482;-65
2023/12/31 01:37:46;;;;;;;16.17;15.70;;;22.50;54.50;;;;;;4975827;28;20495;-65
2023/12/31 01:40:13;;;;;;;16.83;16.23;;;22.50;54.50;;;;;;4975863;28;20473;-65
2023/12/31 01:42:40;;;;;;;15.20;14.80;;;22.50;54.50;;;;;;4983346;28;20466;-65
2023/12/31 01:45:08;;;;;;;15.80;15.40;;;22.50;54.60;;;;;;4995546;28;20474;-64
2023/12/31 01:47:36;;;;;;;15.93;15.53;;;22.40;54.50;;;;;;4995042;28;20601;-64
2023/12/31 01:50:05;;;;;;;17.60;17.10;;;22.40;54.60;;;;;;4995227;28;20505;-64
2023/12/31 01:52:34;;;;;;;18.77;18.27;;;22.40;54.60;;;;;;4988881;28;20841;-65
2023/12/31 01:55:05;;;;;;;17.70;17.20;;;22.40;54.60;;;;;;4975678;28;20502;-65
2023/12/31 01:57:33;;;;;;;15.60;15.20;;;22.40;54.60;;;;;;4975572;28;20488;-64
2023/12/31 02:00:03;;;;;;;16.53;15.93;;;22.40;54.70;;;;;;4975743;28;20531;-64
2023/12/31 02:02:31;;;;;;;15.90;15.50;;;22.40;54.70;;;;;;4981470;28;20439;-64
2023/12/31 02:04:58;;;;;;;16.00;15.60;;;22.40;54.70;;;;;;4995057;28;20478;-64
2023/12/31 02:07:26;;;;;;;16.00;15.60;;;22.40;54.70;;;;;;4994794;28;20494;-64
2023/12/31 02:09:53;;;;;;;16.30;15.83;;;22.30;54.70;;;;;;4994758;28;20518;-65
2023/12/31 02:12:22;;;;;;;17.00;16.50;;;22.30;54.70;;;;;;4990666;28;20464;-65
2023/12/31 02:14:49;;;;;;;16.03;15.63;;;22.30;54.70;;;;;;4976434;28;20487;-64
2023/12/31 02:17:16;;;;;;;16.40;15.90;;;22.30;54.70;;;;;;4975379;28;20473;-65
2023/12/31 02:19:43;;;;;;;15.63;15.23;;;22.30;54.70;;;;;;4975162;28;20463;-64
2023/12/31 02:22:10;;;;;;;16.07;15.60;;;22.30;54.80;;;;;;4977658;28;20428;-65
2023/12/31 02:24:44;;;;;;;15.80;15.40;;;22.30;54.80;;;;;;4994603;28;20435;-65
2023/12/31 02:27:13;;;;;;;15.97;15.57;;;22.30;54.80;;;;;;4994425;28;20494;-65
2023/12/31 02:29:39;;;;;;;15.80;15.40;;;22.30;54.80;;;;;;4994419;28;20565;-64
2023/12/31 02:32:07;;;;;;;15.63;15.23;;;22.30;54.80;;;;;;4992638;28;20478;-64
2023/12/31 02:34:34;;;;;;;16.00;15.33;;;22.30;54.80;;;;;;4975060;28;20482;-65
2023/12/31 02:37:01;;;;;;;15.27;14.87;;;22.30;54.90;;;;;;4974793;28;20495;-64
2023/12/31 02:39:27;;;;;;;15.50;15.10;;;22.20;54.80;;;;;;4975021;28;20468;-64
2023/12/31 02:41:54;;;;;;;17.33;16.70;;;22.30;54.90;;;;;;4974917;28;20517;-65
2023/12/31 02:44:23;;;;;;;16.70;16.20;;;22.20;54.80;;;;;;4980987;28;20451;-64
2023/12/31 02:46:50;;;;;;;15.80;15.40;;;22.20;54.80;;;;;;4994091;28;20495;-64
2023/12/31 02:49:17;;;;;;;16.40;16.00;;;22.20;54.70;;;;;;4994227;28;20529;-64
2023/12/31 02:51:43;;;;;;;17.03;16.63;;;22.20;54.80;;;;;;4994092;28;20900;-64
2023/12/31 02:54:10;;;;;;;16.60;16.13;;;22.20;54.80;;;;;;4977789;28;20498;-64
2023/12/31 02:56:41;;;;;;;16.20;15.80;;;22.20;54.90;;;;;;4974713;28;20499;-64
2023/12/31 02:59:08;;;;;;;16.50;16.00;;;22.20;54.90;;;;;;4974867;28;20450;-64
2023/12/31 03:01:37;;;;;;;17.07;16.67;;;22.20;54.80;;;;;;4974441;28;20879;-64
2023/12/31 03:04:05;;;;;;;17.67;17.17;;;22.20;54.80;;;;;;4989456;28;20935;-64
2023/12/31 03:06:33;;;;;;;16.83;16.33;;;22.20;54.90;;;;;;4993930;28;20469;-64
2023/12/31 03:09:01;;;;;;;17.13;16.63;;;22.20;54.90;;;;;;4993905;28;20573;-64
2023/12/31 03:11:29;;;;;;;15.67;15.27;;;22.20;54.90;;;;;;4993701;28;20483;-64
2023/12/31 03:13:56;;;;;;;16.13;15.63;;;22.10;54.80;;;;;;4979750;28;20494;-64
2023/12/31 03:16:24;;;;;;;16.20;15.80;;;22.10;54.90;;;;;;4974018;28;20503;-64
2023/12/31 03:18:53;;;;;;;16.50;16.10;;;22.20;55.00;;;;;;4974409;28;20444;-64
2023/12/31 03:21:20;;;;;;;16.87;16.43;;;22.10;54.90;;;;;;4980041;28;20827;-64
2023/12/31 03:23:47;;;;;;;17.97;17.43;;;22.10;54.90;;;;;;4993521;28;20486;-64
2023/12/31 03:26:14;;;;;;;17.47;16.97;;;22.20;55.00;;;;;;4993424;28;20492;-64
2023/12/31 03:28:42;;;;;;;18.80;18.20;;;22.10;54.90;;;;;;4993571;28;20571;-64
2023/12/31 03:31:10;;;;;;;16.67;16.27;;;22.10;54.90;;;;;;4988742;28;20436;-64
2023/12/31 03:33:37;;;;;;;16.50;16.00;;;22.10;54.90;;;;;;4973846;28;20451;-64
2023/12/31 03:36:06;;;;;;;16.90;16.40;;;22.10;54.90;;;;;;4973646;28;20507;-64
2023/12/31 03:38:33;;;;;;;17.70;17.20;;;22.10;54.90;;;;;;4973880;28;20479;-65
2023/12/31 03:41:00;;;;;;;16.50;16.10;;;22.10;54.90;;;;;;4976623;28;20475;-64
2023/12/31 03:43:27;;;;;;;16.80;16.30;;;22.10;54.90;;;;;;4993091;28;20510;-65
2023/12/31 03:45:54;;;;;;;16.33;15.93;;;22.10;55.00;;;;;;4993014;28;20451;-64
2023/12/31 03:48:21;;;;;;;16.60;16.10;;;22.10;55.00;;;;;;4992924;28;20474;-64
2023/12/31 03:50:48;;;;;;;17.80;17.30;;;22.10;55.00;;;;;;4991638;28;20445;-64
2023/12/31 03:53:16;;;;;;;17.03;16.53;;;22.10;55.00;;;;;;4973009;28;20487;-64
2023/12/31 03:55:43;;;;;;;16.53;16.03;;;22.10;55.00;;;;;;4973508;28;20486;-64
2023/12/31 03:58:10;;;;;;;16.00;15.60;;;22.10;55.00;;;;;;4973497;28;20474;-64
2023/12/31 04:00:37;;;;;;;17.33;16.83;;;22.00;54.90;;;;;;4973407;28;20450;-64
2023/12/31 04:03:05;;;;;;;16.50;16.10;;;22.00;54.90;;;;;;4973601;28;20479;-64
2023/12/31 04:05:32;;;;;;;16.70;16.30;;;22.00;54.90;;;;;;4973489;28;20967;-64
2023/12/31 04:07:59;;;;;;;17.40;16.90;;;22.10;55.00;;;;;;4973358;28;20468;-64
2023/12/31 04:10:27;;;;;;;17.97;17.47;;;22.00;54.90;;;;;;4973162;28;20483;-65
2023/12/31 04:12:54;;;;;;;16.90;16.40;;;22.00;54.90;;;;;;4990689;28;20470;-64
2023/12/31 04:15:22;;;;;;;16.97;16.50;;;22.00;54.90;;;;;;4992614;28;20948;-64
2023/12/31 04:17:48;;;;;;;16.60;16.20;;;22.00;54.90;;;;;;4992807;28;20506;-64
2023/12/31 04:20:15;;;;;;;16.30;15.80;;;22.00;54.90;;;;;;4992579;28;20479;-65
2023/12/31 04:22:42;;;;;;;16.33;15.83;;;22.00;54.90;;;;;;4976476;28;20471;-64
2023/12/31 04:25:09;;;;;;;16.60;16.10;;;22.00;54.90;;;;;;4973271;28;20918;-64
2023/12/31 04:27:40;;;;;;;16.30;15.90;;;22.00;54.90;;;;;;4973222;28;20468;-64
2023/12/31 04:30:07;;;;;;;16.90;16.40;;;22.00;54.90;;;;;;4981063;28;20479;-64
2023/12/31 04:32:34;;;;;;;16.37;15.87;;;22.00;54.90;;;;;;4992395;28;20483;-64
2023/12/31 04:35:01;;;;;;;17.10;16.60;;;22.00;54.90;;;;;;4992672;28;20482;-64
2023/12/31 04:37:28;;;;;;;16.47;15.97;;;21.90;54.80;;;;;;4992308;28;20467;-64
2023/12/31 04:39:55;;;;;;;17.33;16.83;;;22.00;54.90;;;;;;4985771;28;20472;-64
2023/12/31 04:42:22;;;;;;;16.70;16.30;;;22.00;54.90;;;;;;4972855;28;20479;-64
2023/12/31 04:44:50;;;;;;;16.00;15.60;;;21.90;54.80;;;;;;4976924;28;20483;-64
2023/12/31 04:47:17;;;;;;;15.80;15.40;;;21.90;54.80;;;;;;4992283;28;20842;-64
2023/12/31 04:49:44;;;;;;;16.90;16.40;;;21.90;54.90;;;;;;4989810;28;20613;-64
2023/12/31 04:52:11;;;;;;;16.00;15.60;;;21.90;54.80;;;;;;4983940;28;20522;-65
2023/12/31 04:54:41;;;;;;;16.17;15.77;;;22.00;54.90;;;;;;4973012;28;20476;-64
2023/12/31 04:57:08;;;;;;;16.47;16.07;;;21.90;54.90;;;;;;4972948;28;20464;-64
2023/12/31 04:59:35;;;;;;;17.27;16.73;;;22.00;54.90;;;;;;4973895;28;20474;-65
2023/12/31 05:02:03;;;;;;;16.40;16.00;;;22.00;54.90;;;;;;4984586;28;20969;-64
2023/12/31 05:04:30;;;;;;;16.57;16.17;;;22.00;54.90;;;;;;4994061;28;20447;-65
2023/12/31 05:06:58;;;;;;;17.57;17.07;;;22.00;55.00;;;;;;4995986;28;20562;-64
2023/12/31 05:09:24;;;;;;;17.40;16.90;;;22.00;54.90;;;;;;4993868;28;20482;-64
2023/12/31 05:11:51;;;;;;;16.70;16.20;;;22.00;55.00;;;;;;4976389;28;20476;-64
2023/12/31 05:14:18;;;;;;;17.47;16.97;;;22.00;55.00;;;;;;4976376;28;20486;-64
2023/12/31 05:16:45;;;;;;;17.57;17.07;;;22.00;55.00;;;;;;4976277;28;20503;-64
2023/12/31 05:19:13;;;;;;;20.47;19.87;;;22.00;55.50;;;;;;4976176;28;20475;-65
2023/12/31 05:21:40;;;;;;;18.37;17.87;;;22.00;55.00;;;;;;4994060;28;20847;-64
2023/12/31 05:24:08;;;;;;;18.50;18.00;;;22.00;55.00;;;;;;4995732;28;20447;-64
2023/12/31 05:26:35;;;;;;;18.27;17.77;;;22.00;55.00;;;;;;4995500;28;20501;-64
2023/12/31 05:29:02;;;;;;;18.70;18.10;;;22.00;55.00;;;;;;4985356;28;20507;-64
2023/12/31 05:31:28;;;;;;;17.27;16.77;;;22.00;55.50;;;;;;4976193;28;20480;-64
2023/12/31 05:33:56;;;;;;;17.70;17.20;;;22.00;54.90;;;;;;4976249;28;20480;-64
2023/12/31 05:36:24;;;;;;;17.30;16.80;;;22.00;55.00;;;;;;4977650;28;20467;-64
2023/12/31 05:38:51;;;;;;;18.00;17.50;;;22.00;55.00;;;;;;4995374;28;20934;-64
2023/12/31 05:41:18;;;;;;;18.60;18.10;;;22.00;55.00;;;;;;4995479;28;20540;-64
2023/12/31 05:43:45;;;;;;;18.43;17.93;;;22.00;54.90;;;;;;4995372;28;20521;-64
2023/12/31 05:46:12;;;;;;;18.57;18.07;;;22.00;54.90;;;;;;4994742;28;20498;-64
2023/12/31 05:48:39;;;;;;;18.20;17.70;;;22.00;55.00;;;;;;4975733;28;20537;-64
2023/12/31 05:51:06;;;;;;;18.00;17.50;;;22.00;54.90;;;;;;4976096;28;20446;-64
2023/12/31 05:53:34;;;;;;;18.27;17.77;;;22.00;54.90;;;;;;4975846;28;20579;-64
2023/12/31 05:56:01;;;;;;;17.80;17.30;;;22.00;55.00;;;;;;4975546;28;20479;-64
2023/12/31 05:58:29;;;;;;;18.57;17.87;;;22.00;55.00;;;;;;4994047;28;20439;-64
2023/12/31 06:00:56;;;;;;;18.73;18.23;;;22.00;55.00;;;;;;4995074;28;20447;-64
2023/12/31 06:03:23;;;;;;;19.70;19.10;;;22.00;55.00;;;;;;4995065;28;20509;-65
2023/12/31 06:05:49;;;;;;;17.73;17.23;;;22.00;55.10;;;;;;4994886;28;20478;-64
2023/12/31 06:08:16;;;;;;;17.33;16.73;;;22.00;55.10;;;;;;4978185;28;20467;-65
2023/12/31 06:10:45;;;;;;;18.10;17.50;;;22.00;55.10;;;;;;4975440;28;20534;-64
2023/12/31 06:13:12;;;;;;;17.70;17.20;;;22.00;55.00;;;;;;4975410;28;20499;-64
2023/12/31 06:15:38;;;;;;;17.77;17.27;;;22.00;55.00;;;;;;4974977;28;20479;-64
2023/12/31 06:18:06;;;;;;;18.37;17.87;;;22.00;55.00;;;;;;4989968;28;20529;-65
2023/12/31 06:20:32;;;;;;;19.37;18.77;;;22.00;55.00;;;;;;4994806;28;20927;-64
2023/12/31 06:22:59;;;;;;;17.47;16.97;;;22.00;54.90;;;;;;4994695;28;20876;-65
2023/12/31 06:25:26;;;;;;;18.50;18.00;;;22.00;54.90;;;;;;4994601;28;20474;-64
2023/12/31 06:27:56;;;;;;;18.13;17.53;;;22.00;54.90;;;;;;4994280;28;20494;-64
2023/12/31 06:30:23;;;;;;;17.23;16.73;;;22.00;54.90;;;;;;4994641;28;21185;-64
2023/12/31 06:32:51;;;;;;;19.03;18.40;;;22.00;54.90;;;;;;4994474;28;20478;-64
2023/12/31 06:35:18;;;;;;;17.47;16.97;;;22.00;54.90;;;;;;4994410;28;20453;-65
2023/12/31 06:37:45;;;;;;;17.67;17.07;;;22.10;55.00;;;;;;4982718;28;20495;-64
2023/12/31 06:40:12;;;;;;;18.00;17.50;;;22.00;54.90;;;;;;4990131;28;20530;-64
2023/12/31 06:42:39;;;;;;;18.20;17.70;;;22.00;54.90;;;;;;4994353;28;20570;-64
2023/12/31 06:45:08;;;;;;;18.13;17.63;;;22.00;54.90;;;;;;4994244;28;20486;-64
2023/12/31 06:47:35;;;;;;;18.10;17.50;;;22.00;54.90;;;;;;4983877;28;20499;-64
2023/12/31 06:50:02;;;;;;;17.30;16.80;;;22.00;54.90;;;;;;4974808;28;20522;-64
2023/12/31 06:52:29;;;;;;;16.60;16.10;;;22.00;54.90;;;;;;4974672;28;20965;-64
2023/12/31 06:54:56;;;;;;;18.60;18.10;;;22.00;54.90;;;;;;4974629;28;20482;-64
2023/12/31 06:57:23;;;;;;;17.07;16.57;;;22.00;54.90;;;;;;4982378;28;20493;-64
2023/12/31 06:59:50;;;;;;;16.50;16.00;;;22.10;54.90;;;;;;4994101;28;20471;-65
2023/12/31 07:02:19;;;;;;;16.40;16.00;;;22.10;54.90;;;;;;4993896;28;20521;-64
2023/12/31 07:04:46;;;;;;;16.20;15.80;;;22.00;54.80;;;;;;4993851;28;20447;-64
2023/12/31 07:07:13;;;;;;;16.60;16.10;;;22.00;54.90;;;;;;4987297;28;20947;-64
2023/12/31 07:09:39;;;;;;;17.30;16.80;;;22.00;54.80;;;;;;4974591;28;20908;-64
2023/12/31 07:12:07;;;;;;;16.97;16.47;;;22.00;54.80;;;;;;4974230;28;20856;-64
2023/12/31 07:14:34;;;;;;;17.70;17.20;;;22.00;54.90;;;;;;4974154;28;20448;-64
2023/12/31 07:17:00;;;;;;;17.07;16.57;;;22.00;54.90;;;;;;4978134;28;20505;-64
2023/12/31 07:19:29;;;;;;;16.70;16.30;;;22.00;54.80;;;;;;4993561;28;20475;-64
2023/12/31 07:21:56;;;;;;;17.50;17.00;;;22.00;54.80;;;;;;4993565;28;20493;-64
2023/12/31 07:24:23;;;;;;;17.00;16.60;;;22.00;54.80;;;;;;4993502;28;20481;-65
2023/12/31 07:26:49;;;;;;;17.87;17.37;;;22.00;54.80;;;;;;4989496;28;20507;-64
2023/12/31 07:29:16;;;;;;;18.43;17.83;;;22.00;54.80;;;;;;4973924;28;20467;-67
2023/12/31 07:31:43;;;;;;;17.40;16.90;;;22.10;54.90;;;;;;4973865;28;20502;-64
2023/12/31 07:34:10;;;;;;;17.63;17.13;;;22.10;54.80;;;;;;4973876;28;20478;-64
2023/12/31 07:36:38;;;;;;;18.17;17.67;;;22.10;54.90;;;;;;4988048;28;20467;-64
2023/12/31 07:39:05;;;;;;;17.73;17.23;;;22.10;54.90;;;;;;4993250;28;20470;-64
2023/12/31 07:41:32;;;;;;;17.20;16.70;;;22.10;54.90;;;;;;4993190;28;20477;-65
2023/12/31 07:43:59;;;;;;;19.33;18.73;;;22.10;54.80;;;;;;4993229;28;20482;-68
2023/12/31 07:46:27;;;;;;;17.47;16.97;;;22.10;54.80;;;;;;4979863;28;21030;-68
2023/12/31 07:48:54;;;;;;;16.93;16.43;;;22.20;55.10;;;;;;4973609;28;20495;-68
2023/12/31 07:51:21;;;;;;;17.00;16.50;;;22.20;55.20;;;;;;4973411;28;20518;-70
2023/12/31 07:53:49;;;;;;;16.53;16.13;;;22.30;54.90;;;;;;4975172;28;20487;-70
2023/12/31 07:56:16;;;;;;;15.80;15.40;;;22.40;55.50;;;;;;4983605;28;21078;-69
2023/12/31 07:58:43;;;;;;;17.00;16.60;;;22.40;55.40;;;;;;4972854;28;20483;-68
2023/12/31 08:01:10;;;;;;;15.70;15.30;;;22.50;55.30;;;;;;4973380;28;20919;-68
2023/12/31 08:03:37;;;;;;;15.90;15.50;;;22.50;55.10;;;;;;4973636;28;20476;-68
2023/12/31 08:06:05;;;;;;;17.50;17.00;;;22.60;55.90;;;;;;4991247;28;20502;-65
2023/12/31 08:08:32;;;;;;;17.27;16.77;;;22.60;56.00;;;;;;4992567;28;20482;-70
2023/12/31 08:11:00;;;;;;;17.90;17.40;;;22.70;54.90;;;;;;4992683;28;20568;-67
2023/12/31 08:13:27;;;;;;;17.73;17.23;;;22.70;54.40;;;;;;4993049;28;21030;-67
2023/12/31 08:15:56;;;;;;;18.70;18.20;;;22.70;54.40;;;;;;4980712;28;20486;-71
2023/12/31 08:18:23;;;;;;;19.07;18.57;;;22.60;54.50;;;;;;4986799;28;20450;-67
2023/12/31 08:20:49;;;;;;;19.20;18.70;;;22.70;54.90;;;;;;4992699;28;20474;-71
2023/12/31 08:23:18;;;;;;;16.42;15.93;;;22.70;54.90;;;;;;4991584;28;20472;-72
2023/12/31 08:25:44;;;;;;;19.10;18.60;;;22.70;54.70;;;;;;4977722;28;20203;-69
2023/12/31 08:28:13;;;;;;;19.87;19.27;;;22.80;54.50;;;;;;4972952;28;20484;-70
2023/12/31 08:30:40;;;;;;;19.67;19.07;;;22.90;54.40;;;;;;4973433;28;20518;-69
2023/12/31 08:33:07;;;;;;;19.70;19.10;;;22.90;55.00;;;;;;4974414;28;20970;-70
2023/12/31 08:35:34;;;;;;;20.07;19.37;;;22.90;54.80;;;;;;4974238;28;20448;-69
2023/12/31 08:38:01;;;;;;;19.93;19.17;;;22.90;54.90;;;;;;4972960;28;20503;-72
2023/12/31 08:40:28;;;;;;;20.33;19.70;;;22.90;54.80;;;;;;4973634;28;20988;-71
2023/12/31 08:42:55;;;;;;;21.30;20.60;;;22.90;54.70;;;;;;4973992;28;20482;-70
2023/12/31 08:45:23;;;;;;;20.40;19.80;;;22.90;54.90;;;;;;4973157;28;20475;-72
2023/12/31 08:47:52;;;;;;;19.97;19.37;;;22.90;54.60;;;;;;4972923;28;21045;-70
2023/12/31 08:50:20;;;;;;;20.50;19.90;;;23.00;54.60;;;;;;4972779;28;20487;-72
2023/12/31 08:52:48;;;;;;;20.70;20.10;;;23.00;54.50;;;;;;4972804;28;20503;-71
2023/12/31 08:55:15;;;;;;;20.50;19.90;;;23.00;54.50;;;;;;4980432;28;20494;-70
2023/12/31 08:57:44;;;;;;;22.30;21.60;;;23.00;54.60;;;;;;4992269;28;20474;-70
2023/12/31 09:00:12;;;;;;;21.83;21.00;;;23.00;54.50;;;;;;4992729;28;20443;-68
2023/12/31 09:02:40;;;;;;;21.50;20.80;;;23.00;54.30;;;;;;4991978;28;20965;-72
2023/12/31 09:05:08;;;;;;;21.10;20.50;;;23.00;54.40;;;;;;4972533;28;20546;-64
2023/12/31 09:07:35;;;;;;;21.33;20.73;;;23.10;55.30;;;;;;4972479;28;20459;-65
2023/12/31 09:10:03;;;;;;;20.93;20.30;;;23.10;54.70;;;;;;4972733;28;20446;-65
2023/12/31 09:12:30;;;;;;;21.77;20.97;;;23.10;54.50;;;;;;4972626;28;20451;-66
2023/12/31 09:14:57;;;;;;;20.70;20.10;;;23.20;54.50;;;;;;4991189;28;20478;-67
2023/12/31 09:17:24;;;;;;;19.80;18.87;;;23.20;54.50;;;;;;4992339;28;20475;-70
2023/12/31 09:19:55;;;;;;;21.97;21.27;;;23.20;54.40;;;;;;4992141;28;20923;-69
2023/12/31 09:22:22;;;;;;;21.60;21.00;;;23.10;54.30;;;;;;4992121;28;20493;-71
2023/12/31 09:24:50;;;;;;;20.30;19.70;;;23.10;54.40;;;;;;4975166;28;20838;-71
2023/12/31 09:27:18;;;;;;;19.70;19.10;;;23.10;54.30;;;;;;4972357;28;20535;-70
2023/12/31 09:29:45;;;;;;;20.10;19.50;;;23.20;54.20;;;;;;4972457;28;20819;-70
2023/12/31 09:32:12;;;;;;;19.83;19.23;;;23.20;53.80;;;;;;4972349;28;20522;-69
2023/12/31 09:34:39;;;;;;;22.10;21.20;;;23.20;51.40;;;;;;4989687;28;20418;-75
2023/12/31 09:37:07;;;;;;;21.60;20.90;;;23.20;52.40;;;;;;4985775;28;20219;-71
2023/12/31 09:39:34;;;;;;;21.23;20.53;;;23.20;53.50;;;;;;4982884;28;20494;-72
2023/12/31 09:42:05;;;;;;;20.97;20.37;;;23.20;53.70;;;;;;4983735;28;20928;-71
2023/12/31 09:44:33;;;;;;;21.10;20.50;;;23.20;53.90;;;;;;4987792;28;20479;-71
2023/12/31 09:47:07;;;;;;;21.87;21.17;;;23.20;54.10;;;;;;4988542;28;20507;-70
2023/12/31 09:49:35;;;;;;;20.67;20.07;;;23.20;53.80;;;;;;4972357;28;20456;-72
2023/12/31 09:52:03;;;;;;;21.60;20.90;;;23.20;53.90;;;;;;4975698;28;21025;-67
2023/12/31 09:54:32;;;;;;;21.33;20.63;;;23.30;53.70;;;;;;4975755;28;20448;-69
2023/12/31 09:56:59;;;;;;;19.80;19.20;;;23.30;53.40;;;;;;4975702;28;20474;-70
2023/12/31 09:59:27;;;;;;;20.50;19.80;;;23.20;53.20;;;;;;4981673;28;20485;-68
2023/12/31 10:01:56;;;;;;;20.90;20.20;;;23.30;53.60;;;;;;5005922;28;20497;-73
2023/12/31 10:04:23;;;;;;;20.77;20.17;;;23.30;53.70;;;;;;4995242;28;20816;-72
2023/12/31 10:06:54;;;;;;;21.13;20.53;;;23.30;53.90;;;;;;5008323;28;20883;-72
2023/12/31 10:09:24;;;;;;;19.90;19.30;;;23.30;53.90;;;;;;5014585;28;20450;-73
2023/12/31 10:11:54;;;;;;;20.87;20.17;;;23.30;53.80;;;;;;5012936;28;20518;-71
2023/12/31 10:14:21;;;;;;;20.20;19.60;;;23.30;53.80;;;;;;5004070;28;20521;-72
2023/12/31 10:16:48;;;;;;;20.70;19.80;;;23.30;53.80;;;;;;5014100;28;20510;-70
2023/12/31 10:19:15;;;;;;;20.30;19.70;;;23.30;53.70;;;;;;5014328;28;20814;-70
2023/12/31 10:21:46;;;;;;;20.20;19.60;;;23.30;53.70;;;;;;5014269;28;20477;-70
2023/12/31 10:24:13;;;;;;;20.57;19.87;;;23.30;53.70;;;;;;5014434;28;20442;-72
2023/12/31 10:26:42;;;;;;;20.57;19.87;;;23.30;53.60;;;;;;5014000;28;20490;-72
2023/12/31 10:29:11;;;;;;;20.47;19.87;;;23.30;53.40;;;;;;5014281;28;20442;-72
2023/12/31 10:31:38;;;;;;;19.83;19.13;;;23.40;53.50;;;;;;5013937;28;20563;-71
2023/12/31 10:34:16;;;;;;;20.00;19.40;;;23.40;53.40;;;;;;5014168;28;20449;-68
2023/12/31 10:36:45;;;;;;;19.70;19.10;;;23.40;52.90;;;;;;5013322;28;20461;-68
2023/12/31 10:39:25;;;;;;;20.37;19.77;;;23.40;52.80;;;;;;5013829;28;20450;-64
2023/12/31 10:41:56;;;;;;;20.30;19.70;;;23.30;49.70;;;;;;5013842;28;20480;-64
2023/12/31 10:44:26;;;;;;;19.93;19.17;;;22.90;46.00;;;;;;5013901;28;20442;-64
2023/12/31 10:46:53;;;;;;;21.87;20.40;;;22.80;45.70;;;;;;5013681;28;20466;-65
2023/12/31 10:49:23;;;;;;;21.50;20.50;;;22.60;45.50;;;;;;5013863;28;20473;-64
2023/12/31 10:51:53;;;;;;;22.53;21.10;;;22.50;45.60;;;;;;5013822;28;20514;-64
2023/12/31 10:54:29;;;;;;;22.27;21.20;;;22.50;46.60;;;;;;5013767;28;20473;-63
2023/12/31 10:56:57;;;;;;;21.00;20.30;;;22.50;47.00;;;;;;5013461;28;20494;-68
2023/12/31 10:59:26;;;;;;;22.20;21.20;;;22.40;46.80;;;;;;5013525;28;20529;-70
2023/12/31 11:01:54;;;;;;;24.17;22.57;;;22.70;49.80;;;;;;5012394;28;20478;-71
2023/12/31 11:04:23;;;;;;;22.33;21.43;;;22.80;52.10;;;;;;5013397;28;20438;-70
2023/12/31 11:06:51;;;;;;;22.97;21.87;;;23.00;52.40;;;;;;5013391;28;20497;-73
2023/12/31 11:09:20;;;;;;;22.00;21.10;;;23.00;51.80;;;;;;5013422;28;20469;-72
2023/12/31 11:11:47;;;;;;;21.87;20.97;;;23.10;51.70;;;;;;5013450;28;20528;-71
2023/12/31 11:14:16;;;;;;;22.47;21.67;;;23.20;51.70;;;;;;5013293;28;20465;-72
2023/12/31 11:16:56;;;;;;;22.57;21.77;;;23.20;51.90;;;;;;5012958;28;20505;-70
2023/12/31 11:19:44;;;;;;;22.20;21.50;;;23.20;51.90;;;;;;5013299;28;20469;-69
2023/12/31 11:22:29;;;;;;;22.30;21.40;;;23.20;52.20;;;;;;5013139;28;20466;-71
2023/12/31 11:24:57;;;;;;;22.57;21.87;;;23.20;51.80;;;;;;5013105;28;20511;-69
2023/12/31 11:27:28;;;;;;;22.73;21.70;;;23.20;51.90;;;;;;5013107;28;21008;-67
2023/12/31 11:29:55;;;;;;;21.67;20.70;;;23.20;52.00;;;;;;5013121;28;20466;-67
2023/12/31 11:32:24;;;;;;;21.23;20.53;;;23.20;52.00;;;;;;5012620;28;20517;-66
2023/12/31 11:34:52;;;;;;;21.67;20.80;;;23.30;52.00;;;;;;5012893;28;20874;-67
2023/12/31 11:37:20;;;;;;;22.73;21.70;;;23.20;51.90;;;;;;4996505;28;20490;-66
2023/12/31 11:39:48;;;;;;;21.33;20.63;;;23.30;51.70;;;;;;4993294;28;20454;-66
2023/12/31 11:42:15;;;;;;;22.80;21.90;;;23.20;51.30;;;;;;4993161;28;20439;-66
2023/12/31 11:44:44;;;;;;;22.83;22.07;;;23.30;51.50;;;;;;4993078;28;20447;-66
2023/12/31 11:47:14;;;;;;;21.10;20.40;;;23.30;51.60;;;;;;4993025;28;20873;-66
2023/12/31 11:49:47;;;;;;;22.77;21.80;;;23.30;51.40;;;;;;4992902;28;20445;-66
2023/12/31 11:52:14;;;;;;;21.40;20.70;;;23.30;51.30;;;;;;4992960;28;20483;-67
2023/12/31 11:54:41;;;;;;;22.10;21.37;;;23.30;51.10;;;;;;4992941;28;20474;-71
2023/12/31 11:57:10;;;;;;;21.50;20.80;;;23.30;51.10;;;;;;4993069;28;20467;-69
2023/12/31 11:59:37;;;;;;;21.20;20.47;;;23.30;51.20;;;;;;4992670;28;20465;-66
2023/12/31 12:02:06;;;;;;;22.43;21.50;;;23.20;51.30;;;;;;4992790;28;20470;-67
2023/12/31 12:04:33;;;;;;;23.27;22.37;;;23.30;51.40;;;;;;4992861;28;20509;-66
2023/12/31 12:07:03;;;;;;;23.47;22.67;;;23.30;51.00;;;;;;4992595;28;20490;-66
2023/12/31 12:09:34;;;;;;;22.67;21.98;;;23.40;50.80;;;;;;4975220;28;20461;-65
2023/12/31 12:12:03;;;;;;;22.53;21.83;;;23.40;50.50;;;;;;4992541;28;20220;-64
2023/12/31 12:14:31;;;;;;;21.87;21.17;;;23.30;50.40;;;;;;4992379;28;20447;-63
2023/12/31 12:16:59;;;;;;;22.00;21.30;;;23.30;50.50;;;;;;4992541;28;20499;-63
2023/12/31 12:19:26;;;;;;;21.60;20.60;;;23.20;50.80;;;;;;4992575;28;20450;-62
2023/12/31 12:21:54;;;;;;;22.63;21.73;;;23.20;51.90;;;;;;4992632;28;20810;-66
2023/12/31 12:24:24;;;;;;;22.30;21.20;;;23.20;51.30;;;;;;4992427;28;20956;-65
2023/12/31 12:26:51;;;;;;;22.50;21.70;;;23.20;51.20;;;;;;4992360;28;20988;-65
2023/12/31 12:29:20;;;;;;;22.63;21.93;;;23.20;51.00;;;;;;4992307;28;20483;-65
2023/12/31 12:31:48;;;;;;;22.03;21.23;;;23.10;51.80;;;;;;4992283;28;20549;-64